Airfield :
LOGIN :

Register | Disclaimer

   EN    FR    IT 

 










Legend :    VFR   Marginal VFR   IFR   Intensive IFR   Very Intensive IFR
Visi :
Ceiling :
>= 8 km
>= 3000ft
5 to 8 km
1000 to 3000 ft
1500m to 5 km
500 to 1000 ft
800 to 1500m
200 to 500 ft
< 800m
< 200 ft
Symbols :   Thunderstorms  Fog  Heavy snow  Heavy precipitations  Wind > 20 kt
SIGMETs :     Misc.  Thunderstorms  Icing  Turbulence  Mountain Waves  Volcanic Ashes






- Airport Elevation : 14 ft
- IATA code : BRE


EDDW - Bremen Neuenland

CURRENT METAR :
  • 171920Z VRB02KT 9999 FEW014TCU 12/10 Q1005 TEMPO BKN014

EXPIRED METARs :
  • 171850Z VRB01KT 9999 FEW022CB 12/10 Q1004 TEMPO BKN014
  • 171820Z 28003KT 9999 FEW015CB 12/10 Q1004 NOSIG
  • 171750Z 03003KT 290V090 9999 VCSH FEW017CB 13/09 Q1004 NOSIG
  • 171720Z VRB02KT 9999 VCSH SCT020CB SCT045 13/09 Q1004 RETS NOSIG

TAF TAF EDDW
Valid from the 17 at 18:00 until the 18 at 18:00 UTC


171700Z 1718/1818 31005KT 9999 SCT030
PROB30
TEMPO 1718/1720 SHRA BKN020CB
TEMPO 1722/1805 3500 BR BKN003
PROB30
TEMPO 1805/1807 BKN007
PROB30
TEMPO 1810/1816 SHRA BKN025TCU



MET'MAP, your aeronautical weather chart ! - Copyright ORBIFLY December 2007 - Disclaimer

ORBIFLY MET'MAP TEAM :

Programming & Development : Alexandra Zaïnal
Concept & original design : Baudouin d'Aumeries
Assistance for programming : Marc-Olivier Méhu
Technical & hardware support : Manuel Goepfert

Contact : metmap@orbifly.com




SOURCES & CREDITS :

   NOAA